createdAt,value
2023-03-22T00:00:01.637Z,14.98
2023-03-22T00:02:30.633Z,15.30
2023-03-22T00:04:57.943Z,13.20
2023-03-22T00:07:26.643Z,14.45
2023-03-22T00:09:53.869Z,14.82
2023-03-22T00:12:21.072Z,13.60
2023-03-22T00:14:49.574Z,14.75
2023-03-22T00:17:16.830Z,14.57
2023-03-22T00:19:45.071Z,16.25
2023-03-22T00:22:14.815Z,14.88
2023-03-22T00:24:42.074Z,18.70
2023-03-22T00:27:09.310Z,16.42
2023-03-22T00:29:36.613Z,17.80
2023-03-22T00:32:04.410Z,19.48
2023-03-22T00:34:32.663Z,18.20
2023-03-22T00:37:00.233Z,15.98
2023-03-22T00:39:27.488Z,20.10
2023-03-22T00:41:54.767Z,19.40
2023-03-22T00:44:22.005Z,21.08
2023-03-22T00:46:49.286Z,20.88
2023-03-22T00:49:16.507Z,20.60
2023-03-22T00:51:43.755Z,18.98
2023-03-22T00:54:12.040Z,20.88
2023-03-22T00:56:39.309Z,20.98
2023-03-22T00:59:06.748Z,18.55
2023-03-22T01:01:34.136Z,19.77
2023-03-22T01:04:01.913Z,17.92
2023-03-22T01:06:29.200Z,17.10
2023-03-22T01:08:57.390Z,16.60
2023-03-22T01:11:25.010Z,19.85
2023-03-22T01:13:52.563Z,15.23
2023-03-22T01:16:19.823Z,14.60
2023-03-22T01:18:47.203Z,17.60
2023-03-22T01:21:14.511Z,15.70
2023-03-22T01:23:41.869Z,13.35
2023-03-22T01:26:09.103Z,14.38
2023-03-22T01:28:36.400Z,16.10
2023-03-22T01:31:04.281Z,14.95
2023-03-22T01:33:31.621Z,15.52
2023-03-22T01:35:58.936Z,16.20
2023-03-22T01:38:26.279Z,15.23
2023-03-22T01:40:53.500Z,17.90
2023-03-22T01:43:21.015Z,13.55
2023-03-22T01:45:49.025Z,13.73
2023-03-22T01:48:22.379Z,9.88
2023-03-22T01:50:56.281Z,12.40
2023-03-22T01:53:25.916Z,12.10
2023-03-22T01:55:54.034Z,14.68
2023-03-22T01:58:21.364Z,13.50
2023-03-22T02:00:49.962Z,9.98
2023-03-22T02:03:19.305Z,14.82
2023-03-22T02:05:47.343Z,13.98
2023-03-22T02:08:15.256Z,14.65
2023-03-22T02:10:42.843Z,11.80
2023-03-22T02:13:16.329Z,13.23
2023-03-22T02:15:43.673Z,13.05
2023-03-22T02:18:16.634Z,15.85
2023-03-22T02:20:47.160Z,12.10
2023-03-22T02:23:26.357Z,13.07
2023-03-22T02:26:02.475Z,12.82
2023-03-22T02:28:29.734Z,12.38
2023-03-22T02:31:12.459Z,14.05
2023-03-22T02:33:55.862Z,13.25
2023-03-22T02:36:23.047Z,13.90
2023-03-22T02:38:59.596Z,14.00
2023-03-22T02:41:52.977Z,14.48
2023-03-22T02:44:30.602Z,15.20
2023-03-22T02:47:03.236Z,12.88
2023-03-22T02:49:30.729Z,15.82
2023-03-22T02:52:04.510Z,14.57
2023-03-22T02:54:34.848Z,14.50
2023-03-22T02:57:16.230Z,19.20
2023-03-22T02:59:44.235Z,14.80
2023-03-22T03:02:13.232Z,12.80
2023-03-22T03:04:45.401Z,15.57
2023-03-22T03:07:14.408Z,14.73
2023-03-22T03:09:42.409Z,16.80
2023-03-22T03:12:19.354Z,16.30
2023-03-22T03:14:46.584Z,14.63
2023-03-22T03:17:32.060Z,14.85
2023-03-22T03:20:02.282Z,16.52
2023-03-22T03:22:48.228Z,17.25
2023-03-22T03:25:21.384Z,16.00
2023-03-22T03:27:51.065Z,17.05
2023-03-22T03:30:24.253Z,18.13
2023-03-22T03:32:59.306Z,16.15
2023-03-22T03:35:46.772Z,18.17
2023-03-22T03:38:16.183Z,17.92
2023-03-22T03:40:46.570Z,18.38
2023-03-22T03:43:15.134Z,13.85
2023-03-22T03:45:42.788Z,15.73
2023-03-22T03:48:12.316Z,14.25
2023-03-22T03:50:39.861Z,13.48
2023-03-22T03:53:07.281Z,10.50
2023-03-22T03:55:34.699Z,12.32
2023-03-22T03:58:02.010Z,13.88
2023-03-22T04:00:29.312Z,11.63
2023-03-22T04:02:56.645Z,9.90
2023-03-22T04:05:23.872Z,12.68
2023-03-22T04:07:51.091Z,9.77
2023-03-22T04:10:18.415Z,11.00
2023-03-22T04:12:45.760Z,10.32
2023-03-22T04:15:13.793Z,12.35
2023-03-22T04:17:41.328Z,12.80
2023-03-22T04:20:10.926Z,8.55
2023-03-22T04:22:38.865Z,13.82
2023-03-22T04:25:06.873Z,13.25
2023-03-22T04:27:34.077Z,10.25
2023-03-22T04:30:01.395Z,11.93
2023-03-22T04:32:28.616Z,12.05
2023-03-22T04:34:56.060Z,17.52
2023-03-22T04:37:27.189Z,13.95
2023-03-22T04:39:54.958Z,13.25
2023-03-22T04:42:22.263Z,14.32
2023-03-22T04:44:49.550Z,14.05
2023-03-22T04:47:18.076Z,19.38
2023-03-22T04:49:45.732Z,15.52
2023-03-22T04:52:13.066Z,13.73
2023-03-22T04:54:40.372Z,15.80
2023-03-22T04:57:07.642Z,12.18
2023-03-22T04:59:35.416Z,11.38
2023-03-22T05:02:02.748Z,12.02
2023-03-22T05:04:30.050Z,11.73
2023-03-22T05:06:57.304Z,13.30
2023-03-22T05:09:24.606Z,12.82
2023-03-22T05:11:51.872Z,15.50
2023-03-22T05:14:19.145Z,15.10
2023-03-22T05:16:46.388Z,15.18
2023-03-22T05:19:16.619Z,15.88
2023-03-22T05:21:44.249Z,15.27
2023-03-22T05:24:11.716Z,17.65
2023-03-22T05:26:42.323Z,14.90
2023-03-22T05:29:11.085Z,16.73
2023-03-22T05:31:40.366Z,14.55
2023-03-22T05:34:08.239Z,17.88
2023-03-22T05:36:36.666Z,16.73
2023-03-22T05:39:04.206Z,12.82
2023-03-22T05:41:36.552Z,14.65
2023-03-22T05:44:04.171Z,13.65
2023-03-22T05:46:31.499Z,14.18
2023-03-22T05:48:58.830Z,13.02
2023-03-22T05:51:27.445Z,14.52
2023-03-22T05:53:54.787Z,18.67
2023-03-22T05:56:24.504Z,15.13
2023-03-22T05:58:52.237Z,15.88
2023-03-22T06:01:21.540Z,16.83
2023-03-22T06:03:49.214Z,20.30
2023-03-22T06:06:16.453Z,31.63
2023-03-22T06:08:43.788Z,21.08
2023-03-22T06:11:11.313Z,19.40
2023-03-22T06:13:38.681Z,21.58
2023-03-22T06:16:06.230Z,21.95
2023-03-22T06:18:33.707Z,26.80
2023-03-22T06:21:01.341Z,23.80
2023-03-22T06:23:28.649Z,30.77
2023-03-22T06:25:55.875Z,27.58
2023-03-22T06:28:23.165Z,28.13
2023-03-22T06:30:50.574Z,31.40
2023-03-22T06:33:18.048Z,35.95
2023-03-22T06:35:45.417Z,30.42
2023-03-22T06:38:13.511Z,31.20
2023-03-22T06:40:40.980Z,29.58
2023-03-22T06:43:08.343Z,28.25
2023-03-22T06:45:36.086Z,35.95
2023-03-22T06:48:03.490Z,30.77
2023-03-22T06:50:31.667Z,30.27
2023-03-22T06:52:58.894Z,33.42
2023-03-22T06:55:26.370Z,33.00
2023-03-22T06:57:53.586Z,34.05
2023-03-22T07:00:21.002Z,31.27
2023-03-22T07:02:48.986Z,32.38
2023-03-22T07:05:17.236Z,34.75
2023-03-22T07:07:44.485Z,38.70
2023-03-22T07:10:11.762Z,34.75
2023-03-22T07:12:39.084Z,33.63
2023-03-22T07:15:06.879Z,34.75
2023-03-22T07:17:34.148Z,33.75
2023-03-22T07:20:01.800Z,34.47
2023-03-22T07:22:29.007Z,35.60
2023-03-22T07:24:59.382Z,40.72
2023-03-22T07:27:27.914Z,36.38
2023-03-22T07:29:55.252Z,41.53
2023-03-22T07:32:22.559Z,36.03
2023-03-22T07:34:49.828Z,37.53
2023-03-22T07:37:17.082Z,40.22
2023-03-22T07:39:44.320Z,45.03
2023-03-22T07:42:11.640Z,44.03
2023-03-22T07:44:38.864Z,43.72
2023-03-22T07:47:06.174Z,45.08
2023-03-22T07:49:33.484Z,39.95
2023-03-22T07:52:00.714Z,33.78
2023-03-22T07:54:33.837Z,31.85
2023-03-22T07:57:02.026Z,31.27
2023-03-22T07:59:29.546Z,27.50
2023-03-22T08:01:56.845Z,25.40
2023-03-22T08:04:25.144Z,26.88
2023-03-22T08:06:52.387Z,26.13
2023-03-22T08:09:19.603Z,23.05
2023-03-22T08:11:46.960Z,20.52
2023-03-22T08:14:14.220Z,17.95
2023-03-22T08:16:44.189Z,16.65
2023-03-22T08:19:12.075Z,18.65
2023-03-22T08:21:39.344Z,15.63
2023-03-22T08:24:07.488Z,13.40
2023-03-22T08:26:34.789Z,11.93
2023-03-22T08:29:02.223Z,28.75
2023-03-22T08:31:29.718Z,12.82
2023-03-22T08:33:56.985Z,11.65
2023-03-22T08:36:24.243Z,11.10
2023-03-22T08:38:51.762Z,8.98
2023-03-22T08:41:19.007Z,8.45
2023-03-22T08:43:46.262Z,11.32
2023-03-22T08:46:13.651Z,9.75
2023-03-22T08:48:41.808Z,14.07
2023-03-22T08:51:09.106Z,8.13
2023-03-22T08:53:36.601Z,8.60
2023-03-22T08:56:04.161Z,8.35
2023-03-22T08:58:31.480Z,8.32
2023-03-22T09:00:58.756Z,11.90
2023-03-22T09:03:26.256Z,7.95
2023-03-22T09:05:53.628Z,8.23
2023-03-22T09:08:21.260Z,7.15
2023-03-22T09:10:52.048Z,9.52
2023-03-22T09:13:19.965Z,8.43
2023-03-22T09:15:47.772Z,5.82
2023-03-22T09:18:15.433Z,6.88
2023-03-22T09:20:43.780Z,9.63
2023-03-22T09:23:11.071Z,10.80
2023-03-22T09:25:38.437Z,7.78
2023-03-22T09:28:06.101Z,8.45
2023-03-22T09:30:33.438Z,10.45
2023-03-22T09:33:00.682Z,8.80
2023-03-22T09:35:28.016Z,8.68
2023-03-22T09:37:56.215Z,10.55
2023-03-22T09:40:27.934Z,11.68
2023-03-22T09:42:56.753Z,10.13
2023-03-22T09:45:39.958Z,10.60
2023-03-22T09:48:13.043Z,9.88
2023-03-22T09:50:45.038Z,10.73
2023-03-22T09:53:14.817Z,9.23
2023-03-22T09:55:46.626Z,10.20
2023-03-22T09:58:20.645Z,11.30
2023-03-22T10:00:58.962Z,9.65
2023-03-22T10:03:46.577Z,9.32
2023-03-22T10:06:21.558Z,8.73
2023-03-22T10:08:54.889Z,7.13
2023-03-22T10:11:22.225Z,9.00
2023-03-22T10:13:55.657Z,8.52
2023-03-22T10:16:27.773Z,7.40
2023-03-22T10:18:57.776Z,4.30
2023-03-22T10:21:25.151Z,6.63
2023-03-22T10:23:54.794Z,5.45
2023-03-22T10:26:29.923Z,5.75
2023-03-22T10:31:26.752Z,4.22
2023-03-22T10:34:00.335Z,5.13
2023-03-22T10:36:31.213Z,6.40
2023-03-22T10:39:02.027Z,4.85
2023-03-22T10:41:29.498Z,5.85
2023-03-22T10:43:58.755Z,5.25
2023-03-22T10:46:28.251Z,5.38
2023-03-22T10:48:58.991Z,5.90
2023-03-22T10:51:30.708Z,5.88
2023-03-22T10:53:58.710Z,4.68
2023-03-22T10:56:26.047Z,6.68
2023-03-22T10:58:55.341Z,6.72
2023-03-22T11:01:33.410Z,5.97
2023-03-22T11:04:09.385Z,4.75
2023-03-22T11:06:40.211Z,4.90
2023-03-22T11:09:23.747Z,7.95
2023-03-22T11:11:53.587Z,6.07
2023-03-22T11:14:28.187Z,6.63
2023-03-22T11:17:10.740Z,6.95
2023-03-22T11:19:39.573Z,4.75
2023-03-22T11:22:08.281Z,5.78
2023-03-22T11:24:35.720Z,6.18
2023-03-22T11:27:03.204Z,6.75
2023-03-22T11:29:39.845Z,6.05
2023-03-22T11:32:20.173Z,6.50
2023-03-22T11:34:47.540Z,7.60
2023-03-22T11:37:18.315Z,6.50
2023-03-22T11:39:49.917Z,4.60
2023-03-22T11:42:19.895Z,4.75
2023-03-22T11:44:47.637Z,4.32
2023-03-22T11:47:14.950Z,3.88
2023-03-22T11:49:46.888Z,5.15
2023-03-22T11:52:26.490Z,4.40
2023-03-22T11:54:54.693Z,5.30
2023-03-22T11:57:26.425Z,8.00
2023-03-22T11:59:56.428Z,6.05
2023-03-22T12:02:24.179Z,5.93
2023-03-22T12:04:53.462Z,3.67
2023-03-22T12:07:24.529Z,7.40
2023-03-22T12:10:04.077Z,8.57
2023-03-22T12:12:33.801Z,5.38
2023-03-22T12:15:07.323Z,4.78
2023-03-22T12:17:53.507Z,9.25
2023-03-22T12:20:28.189Z,7.65
2023-03-22T12:22:56.157Z,4.97
2023-03-22T12:25:29.842Z,6.03
2023-03-22T12:27:58.950Z,4.47
2023-03-22T12:30:27.581Z,6.43
2023-03-22T12:32:54.821Z,4.68
2023-03-22T12:35:24.725Z,7.57
2023-03-22T12:37:59.468Z,2.95
2023-03-22T12:40:33.588Z,6.85
2023-03-22T12:43:06.707Z,4.68
2023-03-22T12:45:37.173Z,4.70
2023-03-22T12:48:04.642Z,6.20
2023-03-22T12:50:35.524Z,6.28
2023-03-22T12:53:04.474Z,5.25
2023-03-22T12:55:36.439Z,4.57
2023-03-22T12:58:06.642Z,5.45
2023-03-22T13:00:36.584Z,4.35
2023-03-22T13:03:16.421Z,5.28
2023-03-22T13:05:45.111Z,4.22
2023-03-22T13:08:12.455Z,3.40
2023-03-22T13:10:42.588Z,4.63
2023-03-22T13:13:13.067Z,4.13
2023-03-22T13:15:42.675Z,3.80
2023-03-22T13:18:31.154Z,4.07
2023-03-22T13:21:11.537Z,4.63
2023-03-22T13:23:53.601Z,3.35
2023-03-22T13:26:22.896Z,4.90
2023-03-22T13:28:58.404Z,5.72
2023-03-22T13:31:45.948Z,8.10
2023-03-22T13:34:15.327Z,4.93
2023-03-22T13:36:49.535Z,3.42
2023-03-22T13:39:17.862Z,6.70
2023-03-22T13:41:48.925Z,5.97
2023-03-22T13:44:37.302Z,5.05
2023-03-22T13:47:04.617Z,4.70
2023-03-22T13:49:32.088Z,4.95
2023-03-22T13:52:02.960Z,5.25
2023-03-22T13:54:52.470Z,3.80
2023-03-22T13:57:38.549Z,4.88
2023-03-22T14:00:26.092Z,5.18
2023-03-22T14:02:54.197Z,4.70
2023-03-22T14:05:23.398Z,4.60
2023-03-22T14:07:56.366Z,7.50
2023-03-22T14:10:25.948Z,5.30
2023-03-22T14:12:53.249Z,12.90
2023-03-22T14:15:32.017Z,4.47
2023-03-22T14:18:01.782Z,4.55
2023-03-22T14:20:32.681Z,4.55
2023-03-22T14:53:15.058Z,3.63
2023-03-22T14:55:43.372Z,4.80
2023-03-22T14:58:13.841Z,2.72
2023-03-22T15:00:41.615Z,2.50
2023-03-22T15:03:14.063Z,3.42
2023-03-22T15:05:43.279Z,2.85
2023-03-22T15:08:13.442Z,5.65
2023-03-22T15:10:41.651Z,3.78
2023-03-22T15:13:10.874Z,1.83
2023-03-22T15:15:39.506Z,2.67
2023-03-22T15:18:08.092Z,1.13
2023-03-22T15:20:37.209Z,2.83
2023-03-22T15:23:31.115Z,10.05
2023-03-22T15:26:01.653Z,2.15
2023-03-22T15:28:30.981Z,2.63
2023-03-22T15:31:02.085Z,2.35
2023-03-22T15:33:34.830Z,3.25
2023-03-22T15:36:02.511Z,4.00
2023-03-22T15:38:46.730Z,1.40
2023-03-22T15:41:20.802Z,2.03
2023-03-22T15:43:48.640Z,2.30
2023-03-22T15:46:18.571Z,1.90
2023-03-22T15:49:06.227Z,3.58
2023-03-22T15:51:35.156Z,3.05
2023-03-22T15:54:03.864Z,3.72
2023-03-22T15:56:38.490Z,2.35
2023-03-22T15:59:20.317Z,2.33
2023-03-22T16:01:47.680Z,1.83
2023-03-22T16:04:19.979Z,3.08
2023-03-22T16:06:47.918Z,2.30
2023-03-22T16:09:15.808Z,2.55
2023-03-22T16:11:43.813Z,4.20
2023-03-22T16:14:12.800Z,3.30
2023-03-22T16:16:40.206Z,2.95
2023-03-22T16:19:07.621Z,4.55
2023-03-22T16:21:35.635Z,4.60
2023-03-22T16:24:03.572Z,5.78
2023-03-22T16:26:31.132Z,6.15
2023-03-22T16:28:58.736Z,4.10
2023-03-22T16:31:26.712Z,4.20
2023-03-22T16:33:54.274Z,2.92
2023-03-22T16:36:23.354Z,3.55
2023-03-22T16:38:51.303Z,5.57
2023-03-22T16:41:26.341Z,3.65
2023-03-22T16:43:55.096Z,3.90
2023-03-22T16:46:22.687Z,3.58
2023-03-22T16:48:50.336Z,2.92
2023-03-22T16:51:17.777Z,3.22
2023-03-22T16:53:45.245Z,2.40
2023-03-22T16:56:17.152Z,6.45
2023-03-22T16:58:44.552Z,3.15
2023-03-22T17:01:16.985Z,3.47
2023-03-22T17:03:45.245Z,3.55
2023-03-22T17:06:13.372Z,3.72
2023-03-22T17:08:44.641Z,6.18
2023-03-22T17:11:25.265Z,3.88
2023-03-22T17:13:53.857Z,3.30
2023-03-22T17:16:21.922Z,3.00
2023-03-22T17:18:50.191Z,3.53
2023-03-22T17:21:19.076Z,2.55
2023-03-22T17:23:47.296Z,5.05
2023-03-22T17:26:15.682Z,4.30
2023-03-22T17:28:43.082Z,3.13
2023-03-22T17:31:12.372Z,2.83
2023-03-22T17:33:39.808Z,3.03
2023-03-22T17:36:09.828Z,2.38
2023-03-22T17:41:06.849Z,3.03
2023-03-22T17:43:34.412Z,2.97
2023-03-22T17:46:49.042Z,2.30
2023-03-22T17:48:49.233Z,2.17
2023-03-22T17:51:16.643Z,3.42
2023-03-22T17:54:35.494Z,3.83
2023-03-22T17:56:57.571Z,3.53
2023-03-22T17:59:19.068Z,6.10
2023-03-22T18:01:46.607Z,3.80
2023-03-22T18:04:14.032Z,5.38
2023-03-22T18:06:41.535Z,3.95
2023-03-22T18:09:09.730Z,3.08
2023-03-22T18:11:37.149Z,2.72
2023-03-22T18:14:18.040Z,3.75
2023-03-22T18:16:53.235Z,2.53
2023-03-22T18:19:21.147Z,4.30
2023-03-22T18:21:56.546Z,2.08
2023-03-22T18:24:26.959Z,1.30
2023-03-22T18:27:10.552Z,1.00
2023-03-22T18:29:38.615Z,2.13
2023-03-22T18:32:17.256Z,2.20
2023-03-22T18:34:46.546Z,1.90
2023-03-22T18:37:15.109Z,2.05
2023-03-22T18:40:20.925Z,1.13
2023-03-22T18:45:18.580Z,2.63
2023-03-22T18:47:46.309Z,1.33
2023-03-22T18:50:14.049Z,3.58
2023-03-22T18:53:00.826Z,4.35
2023-03-22T18:55:35.840Z,2.25
2023-03-22T18:58:03.676Z,4.18
2023-03-22T19:00:31.040Z,2.05
2023-03-22T19:02:58.460Z,1.90
2023-03-22T19:05:26.441Z,1.95
2023-03-22T19:08:16.039Z,4.00
2023-03-22T19:10:43.701Z,0.73
2023-03-22T19:13:11.525Z,1.70
2023-03-22T19:15:46.861Z,2.90
2023-03-22T19:18:16.214Z,0.88
2023-03-22T19:20:54.547Z,0.77
2023-03-22T19:23:31.291Z,1.02
2023-03-22T19:25:58.840Z,1.17
2023-03-22T19:28:27.312Z,1.55
2023-03-22T19:30:58.657Z,1.98
2023-03-22T19:33:39.859Z,1.58
2023-03-22T19:36:13.513Z,1.98
2023-03-22T19:38:40.878Z,1.17
2023-03-22T19:41:38.661Z,1.48
2023-03-22T19:43:56.823Z,1.88
2023-03-22T19:46:24.258Z,1.20
2023-03-22T19:48:51.676Z,1.42
2023-03-22T19:51:19.154Z,1.13
2023-03-22T19:54:18.651Z,0.95
2023-03-22T19:56:35.218Z,1.27
2023-03-22T19:59:03.404Z,3.17
2023-03-22T20:01:30.813Z,1.75
2023-03-22T20:03:58.256Z,1.90
2023-03-22T20:06:27.253Z,1.63
2023-03-22T20:08:59.182Z,1.30
2023-03-22T20:11:34.969Z,2.15
2023-03-22T20:14:09.133Z,1.40
2023-03-22T20:16:37.312Z,3.15
2023-03-22T20:19:05.811Z,7.63
2023-03-22T20:21:33.833Z,5.90
2023-03-22T20:24:02.671Z,5.10
2023-03-22T20:26:31.327Z,4.05
2023-03-22T20:28:58.868Z,3.25
2023-03-22T20:31:27.528Z,3.85
2023-03-22T20:33:54.970Z,3.08
2023-03-22T20:36:22.384Z,2.55
2023-03-22T20:38:50.941Z,5.43
2023-03-22T20:41:18.356Z,4.45
2023-03-22T20:43:46.570Z,3.75
2023-03-22T20:46:14.362Z,3.30
2023-03-22T20:48:42.122Z,5.15
2023-03-22T20:51:09.528Z,1.85
2023-03-22T20:53:36.946Z,3.00
2023-03-22T20:56:04.545Z,4.38
2023-03-22T20:58:32.015Z,3.67
2023-03-22T21:01:00.248Z,5.75
2023-03-22T21:03:31.642Z,3.38
2023-03-22T21:05:59.579Z,2.10
2023-03-22T21:08:27.089Z,4.22
2023-03-22T21:10:59.538Z,3.75
2023-03-22T21:13:26.879Z,1.73
2023-03-22T21:15:54.260Z,2.60
2023-03-22T21:18:21.989Z,2.45
2023-03-22T21:20:49.668Z,2.67
2023-03-22T21:23:17.052Z,1.83
2023-03-22T21:25:44.460Z,1.88
2023-03-22T21:28:11.807Z,2.80
2023-03-22T21:30:42.101Z,1.95
2023-03-22T21:33:09.446Z,3.05
2023-03-22T21:35:36.744Z,3.17
2023-03-22T21:38:10.105Z,3.22
2023-03-22T21:40:38.155Z,3.83
2023-03-22T21:43:05.538Z,6.50
2023-03-22T21:45:35.016Z,5.07
2023-03-22T21:48:03.088Z,3.45
2023-03-22T21:50:30.437Z,5.32
2023-03-22T21:52:58.009Z,4.22
2023-03-22T21:55:27.523Z,7.10
2023-03-22T21:57:55.494Z,5.18
2023-03-22T22:00:25.117Z,5.18
2023-03-22T22:02:52.902Z,7.25
2023-03-22T22:05:24.303Z,13.95
2023-03-22T22:07:52.761Z,10.50
2023-03-22T22:10:24.082Z,8.52
2023-03-22T22:12:52.187Z,7.10
2023-03-22T22:15:20.371Z,6.82
2023-03-22T22:17:47.695Z,5.60
2023-03-22T22:20:15.764Z,6.32
2023-03-22T22:22:44.120Z,6.05
2023-03-22T22:25:12.410Z,4.57
2023-03-22T22:27:39.807Z,4.68
2023-03-22T22:30:09.062Z,9.40
2023-03-22T22:32:37.199Z,9.38
2023-03-22T22:35:05.411Z,6.75
2023-03-22T22:37:33.083Z,7.80
2023-03-22T22:40:00.783Z,5.70
2023-03-22T22:42:28.200Z,6.15
2023-03-22T22:44:55.581Z,4.88
2023-03-22T22:47:22.906Z,5.88
2023-03-22T22:49:50.496Z,4.97
2023-03-22T22:52:18.173Z,3.67
2023-03-22T22:54:45.608Z,2.70
2023-03-22T22:57:12.980Z,3.80
2023-03-22T22:59:40.447Z,2.85
2023-03-22T23:02:07.875Z,2.15
2023-03-22T23:04:35.201Z,2.03
2023-03-22T23:07:03.245Z,1.90
2023-03-22T23:09:31.869Z,1.50
2023-03-22T23:11:59.286Z,2.05
2023-03-22T23:14:30.345Z,1.45
2023-03-22T23:16:59.148Z,1.20
2023-03-22T23:19:27.805Z,1.25
2023-03-22T23:22:01.096Z,1.23
2023-03-22T23:24:32.030Z,0.70
2023-03-22T23:27:00.813Z,3.50
2023-03-22T23:29:28.109Z,1.08
2023-03-22T23:31:55.624Z,1.58
2023-03-22T23:34:22.951Z,3.95
2023-03-22T23:36:50.664Z,1.98
2023-03-22T23:39:19.550Z,3.97
2023-03-22T23:41:46.958Z,3.05
2023-03-22T23:44:14.878Z,1.70
2023-03-22T23:46:42.583Z,1.77
2023-03-22T23:49:10.713Z,2.30
2023-03-22T23:51:39.257Z,1.75
2023-03-22T23:54:07.054Z,0.90
2023-03-22T23:56:34.944Z,1.52
2023-03-22T23:59:03.314Z,0.80
